createdAt,value
2023-05-23T00:04:57.955Z,60.95
2023-05-23T00:09:54.927Z,61.18
2023-05-23T00:14:53.014Z,61.43
2023-05-23T00:19:49.961Z,61.67
2023-05-23T00:24:47.644Z,62.03
2023-05-23T00:29:44.726Z,62.74
2023-05-23T00:34:41.925Z,63.17
2023-05-23T00:39:38.790Z,63.37
2023-05-23T00:44:36.675Z,62.84
2023-05-23T00:49:34.074Z,62.63
2023-05-23T00:54:34.441Z,62.35
2023-05-23T00:59:32.182Z,62.12
2023-05-23T01:04:29.888Z,61.94
2023-05-23T01:09:28.944Z,61.75
2023-05-23T01:14:32.805Z,61.57
2023-05-23T01:19:49.330Z,61.25
2023-05-23T01:24:55.485Z,61.13
2023-05-23T01:29:57.681Z,61.24
2023-05-23T01:34:55.667Z,60.88
2023-05-23T01:39:52.554Z,61.05
2023-05-23T01:44:49.761Z,60.69
2023-05-23T01:49:48.839Z,60.99
2023-05-23T01:54:48.508Z,61.07
2023-05-23T01:59:46.261Z,61.27
2023-05-23T02:04:43.305Z,61.61
2023-05-23T02:09:41.092Z,61.54
2023-05-23T02:14:39.118Z,61.69
2023-05-23T02:19:37.081Z,61.67
2023-05-23T02:24:34.223Z,61.78
2023-05-23T02:29:31.849Z,61.80
2023-05-23T02:34:29.139Z,61.83
2023-05-23T02:39:27.321Z,61.56
2023-05-23T02:44:25.448Z,61.83
2023-05-23T02:49:23.300Z,61.77
2023-05-23T02:54:21.378Z,61.53
2023-05-23T02:59:18.415Z,61.79
2023-05-23T03:04:15.512Z,61.41
2023-05-23T03:09:15.214Z,61.37
2023-05-23T03:14:12.296Z,61.43
2023-05-23T03:19:09.514Z,61.24
2023-05-23T03:24:06.778Z,61.01
2023-05-23T03:29:04.369Z,61.02
2023-05-23T03:34:01.440Z,60.81
2023-05-23T03:38:58.356Z,60.55
2023-05-23T03:43:55.349Z,60.39
2023-05-23T03:48:53.251Z,60.27
2023-05-23T03:53:50.479Z,59.90
2023-05-23T03:58:47.976Z,59.35
2023-05-23T04:03:47.500Z,58.31
2023-05-23T04:08:46.659Z,58.09
2023-05-23T04:13:43.833Z,57.66
2023-05-23T04:18:42.878Z,57.29
2023-05-23T04:23:40.018Z,54.84
2023-05-23T04:28:39.626Z,51.87
2023-05-23T04:33:37.556Z,47.43
2023-05-23T04:38:40.462Z,45.26
2023-05-23T04:43:42.157Z,45.07
2023-05-23T04:48:50.654Z,45.38
2023-05-23T04:53:50.060Z,46.58
2023-05-23T04:58:48.753Z,46.97
2023-05-23T05:03:46.978Z,47.58
2023-05-23T05:08:44.834Z,48.41
2023-05-23T05:13:53.661Z,48.63
2023-05-23T05:18:55.440Z,48.86
2023-05-23T05:23:54.048Z,48.74
2023-05-23T05:29:01.653Z,46.68
2023-05-23T05:34:03.778Z,43.08
2023-05-23T05:39:11.258Z,38.02
2023-05-23T05:44:10.381Z,33.75
2023-05-23T05:49:08.196Z,31.30
2023-05-23T05:54:07.065Z,28.65
2023-05-23T05:59:07.807Z,26.02
2023-05-23T06:04:08.727Z,25.01
2023-05-23T06:09:06.435Z,23.66
2023-05-23T06:14:27.872Z,22.79
2023-05-23T06:19:32.883Z,21.85
2023-05-23T06:24:30.812Z,20.72
2023-05-23T06:29:37.590Z,19.83
2023-05-23T06:34:39.583Z,18.71
2023-05-23T06:39:44.125Z,18.80
2023-05-23T06:44:45.529Z,17.93
2023-05-23T06:49:43.823Z,16.89
2023-05-23T06:54:41.867Z,16.43
2023-05-23T06:59:39.477Z,17.40
2023-05-23T07:04:37.109Z,17.50
2023-05-23T07:09:43.570Z,17.37
2023-05-23T07:14:49.293Z,17.08
2023-05-23T07:19:52.047Z,17.01
2023-05-23T07:24:51.926Z,17.47
2023-05-23T07:29:53.249Z,17.88
2023-05-23T07:34:50.871Z,18.60
2023-05-23T07:39:48.806Z,18.49
2023-05-23T07:44:49.732Z,19.15
2023-05-23T07:49:47.198Z,18.49
2023-05-23T07:54:45.036Z,18.66
2023-05-23T07:59:45.466Z,20.20
2023-05-23T08:04:44.766Z,21.64
2023-05-23T08:09:43.089Z,22.83
2023-05-23T08:14:52.122Z,23.60
2023-05-23T08:20:02.846Z,22.71
2023-05-23T08:25:17.110Z,21.73
2023-05-23T08:30:15.715Z,19.44
2023-05-23T08:35:13.968Z,19.05
2023-05-23T08:40:18.559Z,18.66
2023-05-23T08:45:39.521Z,18.04
2023-05-23T08:50:45.328Z,17.60
2023-05-23T08:55:51.707Z,16.87
2023-05-23T09:00:55.816Z,16.51
2023-05-23T09:06:05.472Z,16.98
2023-05-23T09:11:03.716Z,18.33
2023-05-23T09:16:05.708Z,18.91
2023-05-23T09:21:14.918Z,18.93
2023-05-23T09:26:38.887Z,20.39
2023-05-23T09:31:36.033Z,20.44
2023-05-23T09:36:36.343Z,21.25
2023-05-23T09:41:34.359Z,20.85
2023-05-23T09:46:36.291Z,21.03
2023-05-23T09:51:35.900Z,21.21
2023-05-23T09:56:38.213Z,21.56
2023-05-23T10:02:04.041Z,22.71
2023-05-23T10:07:16.827Z,22.44
2023-05-23T10:12:47.223Z,22.19
2023-05-23T10:18:01.157Z,20.45
2023-05-23T10:23:01.545Z,20.71
2023-05-23T10:28:09.802Z,21.92
2023-05-23T10:33:16.323Z,23.50
2023-05-23T10:38:28.897Z,23.87
2023-05-23T10:43:35.197Z,24.29
2023-05-23T10:48:34.810Z,23.92
2023-05-23T10:53:35.588Z,25.60
2023-05-23T10:58:36.863Z,26.52
2023-05-23T11:03:40.637Z,27.12
2023-05-23T11:08:49.244Z,26.76
2023-05-23T11:14:02.158Z,27.58
2023-05-23T11:19:29.698Z,27.79
2023-05-23T11:24:49.876Z,28.62
2023-05-23T11:29:58.408Z,28.88
2023-05-23T11:34:55.421Z,28.18
2023-05-23T11:39:54.666Z,28.21
2023-05-23T11:44:52.541Z,27.40
2023-05-23T11:49:50.163Z,26.42
2023-05-23T11:54:47.240Z,26.98
2023-05-23T11:59:45.603Z,27.09
2023-05-23T12:04:42.559Z,26.21
2023-05-23T12:09:43.304Z,27.29
2023-05-23T12:14:45.505Z,27.82
2023-05-23T12:19:52.920Z,27.26
2023-05-23T12:24:53.605Z,28.11
2023-05-23T12:29:53.953Z,27.83
2023-05-23T12:34:52.521Z,28.63
2023-05-23T12:39:57.692Z,28.51
2023-05-23T12:44:55.940Z,28.49
2023-05-23T12:49:52.952Z,28.16
2023-05-23T12:55:00.146Z,28.39
2023-05-23T13:00:02.223Z,28.34
2023-05-23T13:05:05.941Z,28.29
2023-05-23T13:10:03.644Z,28.61
2023-05-23T13:15:02.446Z,28.67
2023-05-23T13:20:00.741Z,28.51
2023-05-23T13:24:59.704Z,27.44
2023-05-23T13:30:00.398Z,28.11
2023-05-23T13:35:03.564Z,28.23
2023-05-23T13:40:03.091Z,28.25
2023-05-23T13:45:07.862Z,27.39
2023-05-23T13:50:29.074Z,28.00
2023-05-23T13:55:27.298Z,27.99
2023-05-23T14:00:44.500Z,27.87
2023-05-23T14:06:22.026Z,27.43
2023-05-23T14:11:22.200Z,27.23
2023-05-23T14:16:19.840Z,26.24
2023-05-23T14:21:19.921Z,26.71
2023-05-23T14:26:25.568Z,26.29
2023-05-23T14:32:16.895Z,26.78
2023-05-23T14:37:20.224Z,27.10
2023-05-23T14:42:36.432Z,27.76
2023-05-23T14:47:34.231Z,27.84
2023-05-23T14:52:36.483Z,28.28
2023-05-23T14:57:33.930Z,27.99
2023-05-23T15:02:31.744Z,27.81
2023-05-23T15:07:45.736Z,28.04
2023-05-23T15:12:45.576Z,28.30
2023-05-23T15:17:44.817Z,28.69
2023-05-23T15:22:41.978Z,28.53
2023-05-23T15:27:41.147Z,29.33
2023-05-23T15:32:40.354Z,29.62
2023-05-23T15:38:12.139Z,29.86
2023-05-23T15:43:27.354Z,30.71
2023-05-23T15:48:26.474Z,31.97
2023-05-23T15:53:26.065Z,32.48
2023-05-23T15:58:57.011Z,32.89
2023-05-23T16:03:56.040Z,34.14
2023-05-23T16:08:54.089Z,35.10
2023-05-23T16:13:53.467Z,35.75
2023-05-23T16:18:50.964Z,36.11
2023-05-23T16:23:49.354Z,36.94
2023-05-23T16:28:54.240Z,37.58
2023-05-23T16:33:51.834Z,39.11
2023-05-23T16:38:50.446Z,39.60
2023-05-23T16:43:47.803Z,40.78
2023-05-23T16:48:45.316Z,40.86
2023-05-23T16:53:42.168Z,41.63
2023-05-23T16:58:39.658Z,41.33
2023-05-23T17:03:37.402Z,41.72
2023-05-23T17:08:37.784Z,41.78
2023-05-23T17:13:35.899Z,41.52
2023-05-23T17:18:34.672Z,41.70
2023-05-23T17:23:32.016Z,41.75
2023-05-23T17:28:28.953Z,42.08
2023-05-23T17:33:25.976Z,42.27
2023-05-23T17:38:23.972Z,42.84
2023-05-23T17:43:22.098Z,43.24
2023-05-23T17:48:23.892Z,43.61
2023-05-23T17:53:27.000Z,43.42
2023-05-23T17:58:25.362Z,43.85
2023-05-23T18:03:23.736Z,43.93
2023-05-23T18:08:20.865Z,44.22
2023-05-23T18:13:19.590Z,43.96
2023-05-23T18:18:17.382Z,44.53
2023-05-23T18:23:14.694Z,44.51
2023-05-23T18:28:11.653Z,44.69
2023-05-23T18:33:09.517Z,44.13
2023-05-23T18:38:06.859Z,44.38
2023-05-23T18:43:04.175Z,44.46
2023-05-23T18:48:01.030Z,45.01
2023-05-23T18:52:58.676Z,45.32
2023-05-23T18:57:55.505Z,46.83
2023-05-23T19:02:52.670Z,46.94
2023-05-23T19:07:49.845Z,47.15
2023-05-23T19:12:47.413Z,46.51
2023-05-23T19:17:44.238Z,46.28
2023-05-23T19:22:50.806Z,45.67
2023-05-23T19:27:49.142Z,45.55
2023-05-23T19:32:46.213Z,45.21
2023-05-23T19:37:43.279Z,44.86
2023-05-23T19:42:40.074Z,45.66
2023-05-23T19:47:37.560Z,45.93
2023-05-23T19:52:34.508Z,45.84
2023-05-23T19:57:31.621Z,46.03
2023-05-23T20:02:28.613Z,46.34
2023-05-23T20:07:26.272Z,46.58
2023-05-23T20:12:23.183Z,46.82
2023-05-23T20:17:19.998Z,46.98
2023-05-23T20:22:16.895Z,47.28
2023-05-23T20:27:14.561Z,47.34
2023-05-23T20:32:11.413Z,47.95
2023-05-23T20:37:08.611Z,48.29
2023-05-23T20:42:05.739Z,48.57
2023-05-23T20:47:03.829Z,49.02
2023-05-23T20:52:00.729Z,49.12
2023-05-23T20:56:58.306Z,49.19
2023-05-23T21:01:55.071Z,49.29
2023-05-23T21:06:52.561Z,49.51
2023-05-23T21:11:49.367Z,49.70
2023-05-23T21:16:46.414Z,50.04
2023-05-23T21:21:44.163Z,50.29
2023-05-23T21:26:41.631Z,50.57
2023-05-23T21:31:41.824Z,50.72
2023-05-23T21:36:39.033Z,50.96
2023-05-23T21:41:36.414Z,51.06
2023-05-23T21:46:34.104Z,51.38
2023-05-23T21:51:30.866Z,51.48
2023-05-23T21:56:28.066Z,51.50
2023-05-23T22:01:24.809Z,51.67
2023-05-23T22:06:22.252Z,51.83
2023-05-23T22:11:19.276Z,52.02
2023-05-23T22:16:16.134Z,51.86
2023-05-23T22:21:12.995Z,52.00
2023-05-23T22:26:15.100Z,52.14
2023-05-23T22:31:18.984Z,52.27
2023-05-23T22:36:16.045Z,52.47
2023-05-23T22:41:14.150Z,52.57
2023-05-23T22:46:11.023Z,52.61
2023-05-23T22:51:09.064Z,52.65
2023-05-23T22:56:05.974Z,52.75
2023-05-23T23:01:03.500Z,52.83
2023-05-23T23:06:00.324Z,53.17
2023-05-23T23:10:57.173Z,53.45
2023-05-23T23:15:54.203Z,53.78
2023-05-23T23:20:51.644Z,54.05
2023-05-23T23:25:49.552Z,53.96
2023-05-23T23:30:46.505Z,54.28
2023-05-23T23:35:45.776Z,54.47
2023-05-23T23:40:44.854Z,54.68
2023-05-23T23:45:41.762Z,54.74
2023-05-23T23:50:38.530Z,54.81
2023-05-23T23:55:35.361Z,54.88
